Time;durP1;ratioP1;P1;durP2;ratioP2;P2;SDS_P1;SDS_P2;PMS_P1;PMS_P2;Temp;Humidity;BMP_temperature;BMP_pressure;BME280_temperature;BME280_humidity;BME280_pressure;Samples;Min_cycle;Max_cycle;Signal;HPM_P1;HPM_P2
2023/02/17 00:01:55;;;;;;;9.85;5.10;;;11.30;91.70;;;;;;5023044;28;20068;-67
2023/02/17 00:04:20;;;;;;;5.80;3.10;;;11.30;91.70;;;;;;5023594;28;20499;-66
2023/02/17 00:06:46;;;;;;;7.03;3.20;;;11.30;91.70;;;;;;5022669;28;20026;-67
2023/02/17 00:09:11;;;;;;;4.45;2.47;;;11.30;91.70;;;;;;5026312;28;20033;-66
2023/02/17 00:11:37;;;;;;;7.40;3.03;;;11.30;91.70;;;;;;5024729;28;20034;-67
2023/02/17 00:14:03;;;;;;;4.05;2.17;;;11.30;91.70;;;;;;5022576;28;20033;-69
2023/02/17 00:16:29;;;;;;;5.88;3.00;;;11.40;91.70;;;;;;5026886;28;20025;-68
2023/02/17 00:18:57;;;;;;;7.45;3.50;;;11.30;91.60;;;;;;5025422;28;20111;-67
2023/02/17 00:21:26;;;;;;;5.75;3.03;;;11.40;91.70;;;;;;5023516;28;20453;-67
2023/02/17 00:23:52;;;;;;;4.63;2.63;;;11.40;91.60;;;;;;5023360;28;20104;-67
2023/02/17 00:26:19;;;;;;;4.45;2.90;;;11.40;91.60;;;;;;5023836;28;20381;-67
2023/02/17 00:28:45;;;;;;;5.05;2.70;;;11.40;91.60;;;;;;5025799;28;20017;-67
2023/02/17 00:31:16;;;;;;;6.35;2.85;;;11.40;91.70;;;;;;5019193;28;20124;-66
2023/02/17 00:33:42;;;;;;;7.70;3.40;;;11.30;91.90;;;;;;5025762;28;20030;-67
2023/02/17 00:36:12;;;;;;;7.10;3.25;;;11.30;91.70;;;;;;5022124;28;20033;-67
2023/02/17 00:38:37;;;;;;;6.03;2.90;;;11.30;91.70;;;;;;5025409;28;20033;-66
2023/02/17 00:41:03;;;;;;;6.68;3.78;;;11.40;91.70;;;;;;5026611;28;20030;-67
2023/02/17 00:43:29;;;;;;;6.03;3.03;;;11.40;91.60;;;;;;5029361;28;20534;-67
2023/02/17 00:45:54;;;;;;;7.38;3.75;;;11.40;91.60;;;;;;5024053;28;20037;-68
2023/02/17 00:48:21;;;;;;;9.98;4.85;;;11.40;91.50;;;;;;5021336;28;20018;-68
2023/02/17 00:50:46;;;;;;;7.18;3.42;;;11.40;91.50;;;;;;5021573;28;20040;-68
2023/02/17 00:53:12;;;;;;;6.45;3.00;;;11.40;91.60;;;;;;5020779;28;20030;-66
2023/02/17 00:55:38;;;;;;;5.25;2.72;;;11.40;91.60;;;;;;5022877;28;20037;-68
2023/02/17 00:58:03;;;;;;;5.25;2.63;;;11.50;91.50;;;;;;5024220;28;20400;-67
2023/02/17 01:00:29;;;;;;;4.30;2.58;;;11.40;91.50;;;;;;5023933;28;20021;-67
2023/02/17 01:02:54;;;;;;;5.43;2.65;;;11.40;91.40;;;;;;5031595;28;20021;-67
2023/02/17 01:05:20;;;;;;;3.88;2.22;;;11.40;91.50;;;;;;5030397;28;20025;-67
2023/02/17 01:07:45;;;;;;;3.03;1.98;;;11.40;91.50;;;;;;5031356;28;20061;-66
2023/02/17 01:10:11;;;;;;;4.82;2.65;;;11.40;91.50;;;;;;5031297;28;20488;-68
2023/02/17 01:12:37;;;;;;;3.88;2.63;;;11.40;91.50;;;;;;5029755;28;20033;-67
2023/02/17 01:15:04;;;;;;;3.85;2.40;;;11.40;91.50;;;;;;5030839;28;20028;-67
2023/02/17 01:17:29;;;;;;;5.40;2.70;;;11.40;91.50;;;;;;5031333;28;20030;-67
2023/02/17 01:19:56;;;;;;;5.15;2.72;;;11.40;91.50;;;;;;5030725;28;20044;-67
2023/02/17 01:22:21;;;;;;;4.75;2.28;;;11.40;91.50;;;;;;5031274;28;20111;-68
2023/02/17 01:24:47;;;;;;;4.28;2.40;;;11.40;91.50;;;;;;5030410;28;20057;-67
2023/02/17 01:27:12;;;;;;;4.38;2.30;;;11.40;91.60;;;;;;5030858;28;20029;-67
2023/02/17 01:29:38;;;;;;;2.92;1.80;;;11.40;91.50;;;;;;5030483;28;20164;-67
2023/02/17 01:32:04;;;;;;;3.67;1.95;;;11.40;91.50;;;;;;5031115;28;20029;-68
2023/02/17 01:34:29;;;;;;;2.92;1.60;;;11.40;91.40;;;;;;5029496;28;20036;-69
2023/02/17 01:36:55;;;;;;;3.58;2.22;;;11.50;91.40;;;;;;5031068;28;20112;-68
2023/02/17 01:39:20;;;;;;;2.53;1.85;;;11.50;91.40;;;;;;5030388;28;20400;-68
2023/02/17 01:41:46;;;;;;;3.75;2.35;;;11.50;91.30;;;;;;5029451;28;20035;-69
2023/02/17 01:44:19;;;;;;;5.63;2.20;;;11.50;91.30;;;;;;5030312;28;20404;-68
2023/02/17 01:46:47;;;;;;;4.85;2.70;;;11.50;91.40;;;;;;5030650;28;20495;-68
2023/02/17 01:49:27;;;;;;;4.80;2.70;;;11.40;91.40;;;;;;5030178;28;20029;-68
2023/02/17 01:52:05;;;;;;;6.32;2.95;;;11.40;91.80;;;;;;5030748;28;20037;-68
2023/02/17 01:54:42;;;;;;;5.43;2.92;;;11.40;91.50;;;;;;5024892;28;20018;-68
2023/02/17 01:57:10;;;;;;;4.32;2.70;;;11.40;91.50;;;;;;5029952;28;20096;-68
2023/02/17 01:59:36;;;;;;;5.15;2.90;;;11.40;91.50;;;;;;5029793;28;20056;-68
2023/02/17 02:02:04;;;;;;;3.85;2.40;;;11.40;91.50;;;;;;5030401;28;20064;-68
2023/02/17 02:04:32;;;;;;;5.65;2.67;;;11.40;91.50;;;;;;5029767;28;20373;-68
2023/02/17 02:06:58;;;;;;;6.07;3.35;;;11.40;91.50;;;;;;5029131;28;20033;-68
2023/02/17 02:09:34;;;;;;;6.68;3.10;;;11.40;91.60;;;;;;5028152;28;20053;-68
2023/02/17 02:11:59;;;;;;;3.92;2.50;;;11.40;91.60;;;;;;5030001;28;20528;-68
2023/02/17 02:14:25;;;;;;;5.90;3.10;;;11.40;91.50;;;;;;5029640;28;20043;-69
2023/02/17 02:16:51;;;;;;;6.80;3.10;;;11.40;91.50;;;;;;5028678;28;20029;-68
2023/02/17 02:19:54;;;;;;;5.22;3.20;;;11.40;91.60;;;;;;5028528;28;20565;-68
2023/02/17 02:22:34;;;;;;;4.93;2.88;;;11.40;91.60;;;;;;5028500;28;20041;-69
2023/02/17 02:25:32;;;;;;;5.38;2.40;;;11.40;91.70;;;;;;5027891;28;20103;-68
2023/02/17 02:28:13;;;;;;;9.30;3.97;;;11.40;91.70;;;;;;5029238;28;20040;-67
2023/02/17 02:31:15;;;;;;;11.63;4.55;;;11.40;91.70;;;;;;5028314;28;20041;-68
2023/02/17 02:33:51;;;;;;;6.22;2.60;;;11.40;91.70;;;;;;5029568;28;20026;-68
2023/02/17 02:36:25;;;;;;;7.55;3.33;;;11.40;91.70;;;;;;5029440;28;20387;-68
2023/02/17 02:39:16;;;;;;;6.03;2.72;;;11.40;91.60;;;;;;5029661;28;20104;-67
2023/02/17 02:41:47;;;;;;;8.65;4.35;;;11.50;91.50;;;;;;5025773;28;20036;-68
2023/02/17 02:44:16;;;;;;;8.57;4.10;;;11.40;91.50;;;;;;5029284;28;20100;-67
2023/02/17 02:46:41;;;;;;;8.82;3.92;;;11.40;91.60;;;;;;5029254;28;20033;-69
2023/02/17 02:49:08;;;;;;;8.18;3.58;;;11.40;91.70;;;;;;5029618;28;20025;-67
2023/02/17 02:51:53;;;;;;;6.95;3.67;;;11.40;91.60;;;;;;5028203;28;20021;-68
2023/02/17 02:54:54;;;;;;;8.70;3.75;;;11.40;91.70;;;;;;5024542;28;20029;-67
2023/02/17 02:57:28;;;;;;;5.40;2.55;;;11.40;91.60;;;;;;5018038;28;20065;-68
2023/02/17 03:00:23;;;;;;;7.63;3.90;;;11.40;91.60;;;;;;5027687;28;20579;-68
2023/02/17 03:03:00;;;;;;;8.23;4.07;;;11.40;91.70;;;;;;5028310;28;20045;-68
2023/02/17 03:05:51;;;;;;;7.05;3.65;;;11.30;91.70;;;;;;5041023;28;20022;-67
2023/02/17 03:08:33;;;;;;;8.32;4.22;;;11.40;91.70;;;;;;5029426;28;20492;-68
2023/02/17 03:11:00;;;;;;;11.35;4.75;;;11.40;91.60;;;;;;5029240;28;20733;-68
2023/02/17 03:13:25;;;;;;;8.48;3.95;;;11.30;91.60;;;;;;5029559;28;20562;-68
2023/02/17 03:15:51;;;;;;;7.82;3.50;;;11.40;91.60;;;;;;5027301;28;20034;-69
2023/02/17 03:18:17;;;;;;;7.78;3.25;;;11.40;91.50;;;;;;5028792;28;20041;-69
2023/02/17 03:20:56;;;;;;;9.38;4.65;;;11.40;91.50;;;;;;5027956;28;20033;-68
2023/02/17 03:23:21;;;;;;;7.78;3.88;;;11.30;91.50;;;;;;5027515;28;20500;-66
2023/02/17 03:25:47;;;;;;;9.07;4.38;;;11.30;91.50;;;;;;5028059;28;20029;-67
2023/02/17 03:28:14;;;;;;;7.30;3.38;;;11.40;91.50;;;;;;5028914;28;20056;-68
2023/02/17 03:30:40;;;;;;;7.53;3.67;;;11.30;91.40;;;;;;5027437;28;20028;-68
2023/02/17 03:33:06;;;;;;;6.93;3.50;;;11.40;91.40;;;;;;5029113;28;20128;-68
2023/02/17 03:35:32;;;;;;;8.57;4.53;;;11.30;91.40;;;;;;5027865;28;20168;-67
2023/02/17 03:37:57;;;;;;;7.57;3.47;;;11.40;91.40;;;;;;5027573;28;20029;-68
2023/02/17 03:40:23;;;;;;;8.35;3.78;;;11.40;91.30;;;;;;5028428;28;20038;-69
2023/02/17 03:42:48;;;;;;;7.15;3.60;;;11.40;91.30;;;;;;5028593;28;20033;-66
2023/02/17 03:45:14;;;;;;;7.75;3.03;;;11.30;91.30;;;;;;5028699;28;20036;-69
2023/02/17 03:47:39;;;;;;;8.50;3.60;;;11.30;91.30;;;;;;5028654;28;20021;-68
2023/02/17 03:50:06;;;;;;;5.43;2.78;;;11.30;91.30;;;;;;5027332;28;20462;-68
2023/02/17 03:52:31;;;;;;;7.60;3.22;;;11.30;91.30;;;;;;5028212;28;20488;-69
2023/02/17 03:54:57;;;;;;;6.53;3.17;;;11.30;91.30;;;;;;5028972;28;20061;-69
2023/02/17 03:57:22;;;;;;;5.90;2.75;;;11.30;91.30;;;;;;5028644;28;20041;-68
2023/02/17 03:59:48;;;;;;;5.20;2.63;;;11.30;91.20;;;;;;5028292;28;20030;-68
2023/02/17 04:02:14;;;;;;;4.28;2.33;;;11.30;91.20;;;;;;5028476;28;20091;-68
2023/02/17 04:04:39;;;;;;;7.93;2.90;;;11.40;91.10;;;;;;5028368;28;20119;-68
2023/02/17 04:07:05;;;;;;;3.78;2.28;;;11.40;91.10;;;;;;5026918;28;20108;-67
2023/02/17 04:09:30;;;;;;;6.60;3.50;;;11.40;91.10;;;;;;5027058;28;20025;-68
2023/02/17 04:11:56;;;;;;;5.68;3.17;;;11.30;91.10;;;;;;5028263;28;20029;-68
2023/02/17 04:14:21;;;;;;;7.03;3.72;;;11.30;91.40;;;;;;5028325;28;20087;-69
2023/02/17 04:16:47;;;;;;;6.75;3.00;;;11.30;91.10;;;;;;5028447;28;20033;-67
2023/02/17 04:19:13;;;;;;;7.30;3.60;;;11.30;91.10;;;;;;5028259;28;20061;-68
2023/02/17 04:21:38;;;;;;;6.32;3.08;;;11.40;91.10;;;;;;5028200;28;20040;-67
2023/02/17 04:24:04;;;;;;;5.57;2.70;;;11.30;91.10;;;;;;5028435;28;20028;-68
2023/02/17 04:26:30;;;;;;;6.22;3.20;;;11.30;91.10;;;;;;5026984;28;20112;-69
2023/02/17 04:28:55;;;;;;;6.32;2.70;;;11.30;91.00;;;;;;5029809;28;20059;-68
2023/02/17 04:31:21;;;;;;;6.15;2.55;;;11.30;91.00;;;;;;5031800;28;20044;-67
2023/02/17 04:33:47;;;;;;;5.60;2.95;;;11.30;91.00;;;;;;5029962;28;20022;-68
2023/02/17 04:36:12;;;;;;;4.68;2.60;;;11.30;91.10;;;;;;5031437;28;20708;-68
2023/02/17 04:38:38;;;;;;;6.70;3.28;;;11.30;91.10;;;;;;5031404;28;20044;-68
2023/02/17 04:41:05;;;;;;;4.57;2.30;;;11.30;91.10;;;;;;5029756;28;20369;-67
2023/02/17 04:43:30;;;;;;;6.72;2.85;;;11.40;91.10;;;;;;5031880;28;20018;-69
2023/02/17 04:45:56;;;;;;;8.02;3.05;;;11.40;91.00;;;;;;5031126;28;20416;-68
2023/02/17 04:48:22;;;;;;;7.20;2.92;;;11.40;91.00;;;;;;5031892;28;20026;-68
2023/02/17 04:50:48;;;;;;;6.22;2.42;;;11.30;91.00;;;;;;5031064;28;20108;-69
2023/02/17 04:53:14;;;;;;;6.95;3.10;;;11.40;91.00;;;;;;5031426;28;20116;-67
2023/02/17 04:55:40;;;;;;;8.20;4.13;;;11.40;91.00;;;;;;5031598;28;20104;-68
2023/02/17 04:58:06;;;;;;;6.90;3.45;;;11.40;91.00;;;;;;5031419;28;20064;-68
2023/02/17 05:00:32;;;;;;;7.22;3.65;;;11.30;91.00;;;;;;5029982;28;20021;-68
2023/02/17 05:02:58;;;;;;;6.70;2.97;;;11.30;91.10;;;;;;5031639;28;20036;-69
2023/02/17 05:05:23;;;;;;;6.13;3.45;;;11.30;91.10;;;;;;5029651;28;20030;-68
2023/02/17 05:07:49;;;;;;;6.22;3.00;;;11.30;91.10;;;;;;5031329;28;20022;-67
2023/02/17 05:10:16;;;;;;;8.02;3.53;;;11.30;91.10;;;;;;5029718;28;20033;-67
2023/02/17 05:12:42;;;;;;;7.93;3.60;;;11.30;91.20;;;;;;5031773;28;20034;-67
2023/02/17 05:15:08;;;;;;;5.85;3.20;;;11.30;91.20;;;;;;5031450;28;20037;-68
2023/02/17 05:17:34;;;;;;;9.00;4.30;;;11.30;91.20;;;;;;5031073;28;20488;-67
2023/02/17 05:19:59;;;;;;;10.63;3.80;;;11.20;91.20;;;;;;5031028;28;20041;-67
2023/02/17 05:22:26;;;;;;;6.43;3.38;;;11.20;91.30;;;;;;5031089;28;20484;-67
2023/02/17 05:24:52;;;;;;;11.38;4.88;;;11.20;91.30;;;;;;5031115;28;20551;-67
2023/02/17 05:27:18;;;;;;;8.55;3.72;;;11.20;91.30;;;;;;5029932;28;20076;-67
2023/02/17 05:29:43;;;;;;;9.38;4.32;;;11.20;91.30;;;;;;5028583;28;20028;-69
2023/02/17 05:32:09;;;;;;;6.68;2.97;;;11.20;91.30;;;;;;5029911;28;20025;-68
2023/02/17 05:34:35;;;;;;;7.20;3.50;;;11.20;91.30;;;;;;5031018;28;20024;-67
2023/02/17 05:37:00;;;;;;;8.15;3.78;;;11.20;91.30;;;;;;5030576;28;20484;-67
2023/02/17 05:39:26;;;;;;;8.45;3.30;;;11.20;91.30;;;;;;5031404;28;20439;-68
2023/02/17 05:41:52;;;;;;;5.90;3.33;;;11.20;91.40;;;;;;5031340;28;20492;-67
2023/02/17 05:44:18;;;;;;;6.53;3.42;;;11.20;91.40;;;;;;5031951;28;20185;-68
2023/02/17 05:46:43;;;;;;;8.20;3.63;;;11.20;91.50;;;;;;5031709;28;20488;-67
2023/02/17 05:49:09;;;;;;;6.68;3.53;;;11.20;91.50;;;;;;5031184;28;20045;-67
2023/02/17 05:51:35;;;;;;;6.65;3.40;;;11.20;91.50;;;;;;5024417;28;20484;-67
2023/02/17 05:54:01;;;;;;;6.78;3.10;;;11.20;91.50;;;;;;5031215;28;20087;-67
2023/02/17 05:56:26;;;;;;;8.82;4.10;;;11.20;91.70;;;;;;5030826;28;20028;-67
2023/02/17 05:58:52;;;;;;;10.30;3.75;;;11.20;91.70;;;;;;5031320;28;20064;-67
2023/02/17 06:01:18;;;;;;;7.32;3.80;;;11.20;91.80;;;;;;5030526;28;20503;-68
2023/02/17 06:03:43;;;;;;;7.32;3.58;;;11.10;91.80;;;;;;5031099;28;20443;-68
2023/02/17 06:06:09;;;;;;;7.00;3.45;;;11.20;91.80;;;;;;5030910;28;20365;-67
2023/02/17 06:08:35;;;;;;;6.80;3.85;;;11.20;91.80;;;;;;5031211;28;20026;-66
2023/02/17 06:11:01;;;;;;;9.38;4.10;;;11.20;91.80;;;;;;5031255;28;20018;-67
2023/02/17 06:13:26;;;;;;;7.05;3.20;;;11.20;91.70;;;;;;5031015;28;20072;-67
2023/02/17 06:15:52;;;;;;;7.93;3.50;;;11.20;91.70;;;;;;5031460;28;20022;-67
2023/02/17 06:18:18;;;;;;;8.70;4.38;;;11.20;91.80;;;;;;5030855;28;20044;-66
2023/02/17 06:20:43;;;;;;;10.35;5.82;;;11.20;91.80;;;;;;5029436;28;20018;-67
2023/02/17 06:23:10;;;;;;;9.13;4.30;;;11.20;91.90;;;;;;5028902;28;20029;-68
2023/02/17 06:25:35;;;;;;;8.70;4.35;;;11.20;91.90;;;;;;5028959;28;20040;-68
2023/02/17 06:28:01;;;;;;;6.70;3.35;;;11.20;92.00;;;;;;5030710;28;20483;-67
2023/02/17 06:30:27;;;;;;;6.43;3.20;;;11.20;92.00;;;;;;5030683;28;20025;-68
2023/02/17 06:32:52;;;;;;;5.68;3.30;;;11.20;92.00;;;;;;5030362;28;20442;-67
2023/02/17 06:35:18;;;;;;;6.72;3.45;;;11.20;92.00;;;;;;5030908;28;20061;-67
2023/02/17 06:37:43;;;;;;;6.15;3.00;;;11.20;92.10;;;;;;5028787;28;20083;-67
2023/02/17 06:40:09;;;;;;;8.10;4.15;;;11.20;92.10;;;;;;5028736;28;20117;-68
2023/02/17 06:42:35;;;;;;;6.72;3.30;;;11.20;92.10;;;;;;5029045;28;20026;-68
2023/02/17 06:45:04;;;;;;;5.22;2.63;;;11.20;92.00;;;;;;5030192;28;20443;-68
2023/02/17 06:47:30;;;;;;;4.90;2.92;;;11.30;92.00;;;;;;5029853;28;20025;-67
2023/02/17 06:49:56;;;;;;;6.95;3.70;;;11.30;92.10;;;;;;5029190;28;20018;-68
2023/02/17 06:52:21;;;;;;;4.13;2.35;;;11.30;92.10;;;;;;5028950;28;20555;-67
2023/02/17 06:54:47;;;;;;;5.72;3.08;;;11.30;92.00;;;;;;5029194;28;20018;-67
2023/02/17 06:57:12;;;;;;;8.73;3.92;;;11.30;92.10;;;;;;5029970;28;20040;-66
2023/02/17 06:59:38;;;;;;;7.88;3.50;;;11.30;92.10;;;;;;5030309;28;20366;-67
2023/02/17 07:02:03;;;;;;;7.93;3.45;;;11.20;92.40;;;;;;5028235;28;20392;-67
2023/02/17 07:04:29;;;;;;;7.63;3.33;;;11.20;92.40;;;;;;5030061;28;20630;-68
2023/02/17 07:06:54;;;;;;;5.30;2.85;;;11.30;92.50;;;;;;5029838;28;20029;-67
2023/02/17 07:09:20;;;;;;;7.40;3.53;;;11.30;92.50;;;;;;5029595;28;20030;-67
2023/02/17 07:11:47;;;;;;;7.18;3.20;;;11.30;92.60;;;;;;5029387;28;20036;-66
2023/02/17 07:14:12;;;;;;;5.55;3.00;;;11.30;92.50;;;;;;5028603;28;20033;-68
2023/02/17 07:16:38;;;;;;;9.88;3.72;;;11.30;92.60;;;;;;5028993;28;20030;-68
2023/02/17 07:19:04;;;;;;;7.53;3.65;;;11.30;92.60;;;;;;5028196;28;20029;-68
2023/02/17 07:21:30;;;;;;;9.98;5.13;;;11.30;92.60;;;;;;5029695;28;20148;-67
2023/02/17 07:23:56;;;;;;;8.18;3.63;;;11.30;92.60;;;;;;5028466;28;20104;-68
2023/02/17 07:26:21;;;;;;;6.20;3.22;;;11.30;92.60;;;;;;5029609;28;20034;-68
2023/02/17 07:28:47;;;;;;;7.65;3.53;;;11.30;92.60;;;;;;5029252;28;20017;-68
2023/02/17 07:31:15;;;;;;;6.70;3.22;;;11.30;92.50;;;;;;5029774;28;20033;-68
2023/02/17 07:33:42;;;;;;;7.93;3.65;;;11.30;92.60;;;;;;5029428;28;20057;-68
2023/02/17 07:36:09;;;;;;;6.20;3.00;;;11.40;92.50;;;;;;5030169;28;20037;-67
2023/02/17 07:38:35;;;;;;;7.13;3.83;;;11.40;92.50;;;;;;5029683;28;20117;-68
2023/02/17 07:41:10;;;;;;;5.65;3.28;;;11.40;92.50;;;;;;5028495;28;20025;-68
2023/02/17 07:43:35;;;;;;;8.02;3.35;;;11.40;92.60;;;;;;5028805;28;20037;-67
2023/02/17 07:46:01;;;;;;;7.40;3.47;;;11.40;92.60;;;;;;5029380;28;20026;-67
2023/02/17 07:48:26;;;;;;;5.97;3.00;;;11.40;92.60;;;;;;5031891;28;20097;-69
2023/02/17 07:50:52;;;;;;;6.95;3.45;;;11.40;92.60;;;;;;5033810;28;20029;-67
2023/02/17 07:53:18;;;;;;;5.28;2.85;;;11.50;92.60;;;;;;5023052;28;20021;-68
2023/02/17 07:55:43;;;;;;;8.70;3.83;;;11.50;92.60;;;;;;5026735;28;20591;-68
2023/02/17 07:58:09;;;;;;;11.88;5.25;;;11.50;92.60;;;;;;5027666;28;20432;-67
2023/02/17 08:00:35;;;;;;;5.22;3.10;;;11.50;92.50;;;;;;5030052;28;20029;-67
2023/02/17 08:03:00;;;;;;;6.30;3.22;;;11.50;92.50;;;;;;5035400;28;20077;-67
2023/02/17 08:05:26;;;;;;;8.85;4.15;;;11.60;92.40;;;;;;5031803;28;20060;-68
2023/02/17 08:13:17;;;;;;;5.95;3.42;;;11.60;92.40;;;;;;5033112;28;20029;-67
2023/02/17 08:13:23;;;;;;;6.90;3.72;;;11.60;92.30;;;;;;5029375;28;20032;-67
2023/02/17 08:15:48;;;;;;;6.53;3.33;;;11.60;92.30;;;;;;5032223;28;20025;-67
2023/02/17 08:18:14;;;;;;;7.45;4.25;;;11.60;92.30;;;;;;5045068;28;20033;-68
2023/02/17 08:20:39;;;;;;;7.75;3.65;;;11.70;92.20;;;;;;5030179;28;20090;-68
2023/02/17 08:23:05;;;;;;;7.05;3.63;;;11.70;92.20;;;;;;5030884;28;20133;-67
2023/02/17 08:25:35;;;;;;;6.28;3.22;;;11.70;92.30;;;;;;5030279;28;20038;-68
2023/02/17 08:28:03;;;;;;;6.90;4.03;;;11.70;92.20;;;;;;5031176;28;20028;-67
2023/02/17 08:30:29;;;;;;;5.72;2.97;;;11.70;92.20;;;;;;5029809;28;20021;-68
2023/02/17 08:32:54;;;;;;;6.70;3.30;;;11.70;92.20;;;;;;5032860;28;20144;-68
2023/02/17 08:35:21;;;;;;;6.10;3.38;;;11.80;92.20;;;;;;5026005;28;20041;-68
2023/02/17 08:37:48;;;;;;;9.18;4.25;;;11.80;92.20;;;;;;5025876;28;20472;-67
2023/02/17 08:40:14;;;;;;;5.82;3.28;;;11.80;92.30;;;;;;5028448;28;20037;-68
2023/02/17 08:42:39;;;;;;;6.53;3.58;;;11.80;92.20;;;;;;5030221;28;20033;-67
2023/02/17 08:45:06;;;;;;;5.75;2.78;;;11.80;92.10;;;;;;5030678;28;20034;-68
2023/02/17 08:47:31;;;;;;;4.60;2.78;;;11.90;92.10;;;;;;5029581;28;20383;-68
2023/02/17 08:49:57;;;;;;;6.90;3.55;;;11.90;92.10;;;;;;5029718;28;20030;-68
2023/02/17 08:52:23;;;;;;;9.65;4.00;;;11.90;92.10;;;;;;5030483;28;20021;-68
2023/02/17 08:54:49;;;;;;;6.45;2.95;;;12.00;92.00;;;;;;5029952;28;20025;-68
2023/02/17 08:57:15;;;;;;;5.38;2.97;;;12.00;92.10;;;;;;5031613;28;20025;-68
2023/02/17 08:59:40;;;;;;;7.00;3.08;;;12.00;92.10;;;;;;5025495;28;20883;-68
2023/02/17 09:02:07;;;;;;;6.35;3.15;;;12.00;92.00;;;;;;5029110;28;20025;-67
2023/02/17 09:04:32;;;;;;;6.53;3.00;;;12.00;92.00;;;;;;5029980;28;20022;-68
2023/02/17 09:07:00;;;;;;;5.85;3.05;;;12.10;92.00;;;;;;5029946;28;20537;-67
2023/02/17 09:09:26;;;;;;;4.85;2.35;;;12.10;92.00;;;;;;5031411;28;20027;-67
2023/02/17 09:11:54;;;;;;;3.65;2.22;;;12.10;91.80;;;;;;5031239;28;20021;-67
2023/02/17 09:14:22;;;;;;;6.00;2.42;;;12.10;91.80;;;;;;5029042;28;20087;-68
2023/02/17 09:16:49;;;;;;;5.05;2.55;;;12.20;91.80;;;;;;5029982;28;20025;-67
2023/02/17 09:19:15;;;;;;;4.15;2.10;;;12.20;91.80;;;;;;5030377;28;20091;-68
2023/02/17 09:21:40;;;;;;;4.45;2.50;;;12.20;91.80;;;;;;5029699;28;20408;-67
2023/02/17 09:24:06;;;;;;;4.05;2.80;;;12.20;91.80;;;;;;5029738;28;20459;-67
2023/02/17 09:26:33;;;;;;;6.28;2.38;;;12.20;91.80;;;;;;5025515;28;20028;-67
2023/02/17 09:29:00;;;;;;;4.68;2.40;;;12.20;91.70;;;;;;5029742;28;20388;-67
2023/02/17 09:31:27;;;;;;;3.60;2.10;;;12.30;91.70;;;;;;5031284;28;20017;-68
2023/02/17 09:33:54;;;;;;;4.55;2.40;;;12.30;91.60;;;;;;5030090;28;20029;-67
2023/02/17 09:36:27;;;;;;;4.80;2.45;;;12.30;91.60;;;;;;5028714;28;20029;-68
2023/02/17 09:38:53;;;;;;;4.85;2.45;;;12.30;91.70;;;;;;5029637;28;20032;-68
2023/02/17 09:41:40;;;;;;;5.72;2.53;;;12.30;91.70;;;;;;5028465;28;20029;-68
2023/02/17 09:44:16;;;;;;;4.43;2.50;;;12.30;91.60;;;;;;5028685;28;20028;-68
2023/02/17 09:46:52;;;;;;;3.63;2.25;;;12.30;91.60;;;;;;5025832;28;20022;-68
2023/02/17 09:49:23;;;;;;;3.10;1.85;;;12.30;91.60;;;;;;5026597;28;20033;-68
2023/02/17 09:52:08;;;;;;;3.33;2.08;;;12.30;91.60;;;;;;5028704;28;20098;-68
2023/02/17 09:54:51;;;;;;;4.10;2.33;;;12.30;91.50;;;;;;5030043;28;20044;-68
2023/02/17 09:57:23;;;;;;;5.57;2.50;;;12.40;91.50;;;;;;5028202;28;20035;-67
2023/02/17 09:59:57;;;;;;;3.65;2.22;;;12.40;91.50;;;;;;5030031;28;20022;-68
2023/02/17 10:02:55;;;;;;;3.97;1.85;;;12.40;91.60;;;;;;5027509;28;20025;-68
2023/02/17 10:05:24;;;;;;;3.20;1.70;;;12.40;91.50;;;;;;5027205;28;20030;-68
2023/02/17 10:08:16;;;;;;;3.97;2.20;;;12.40;91.80;;;;;;5029170;28;20074;-68
2023/02/17 10:10:53;;;;;;;3.90;2.22;;;12.40;91.50;;;;;;5028853;28;20026;-68
2023/02/17 10:13:22;;;;;;;4.72;1.98;;;12.40;91.40;;;;;;5029399;28;20495;-68
2023/02/17 10:15:50;;;;;;;4.50;2.80;;;12.40;91.30;;;;;;5022781;28;20037;-67
2023/02/17 10:18:18;;;;;;;6.20;2.53;;;12.40;91.20;;;;;;5026011;28;20090;-68
2023/02/17 10:20:49;;;;;;;3.80;2.03;;;12.40;91.20;;;;;;5025176;28;20029;-68
2023/02/17 10:23:29;;;;;;;4.07;1.67;;;12.40;91.20;;;;;;5024132;28;20025;-67
2023/02/17 10:26:19;;;;;;;3.90;2.30;;;12.40;91.10;;;;;;5024633;28;20026;-67
2023/02/17 10:29:05;;;;;;;7.07;2.40;;;12.50;91.10;;;;;;5025042;28;20029;-68
2023/02/17 10:32:02;;;;;;;4.22;2.50;;;12.50;91.10;;;;;;5026850;28;20029;-68
2023/02/17 10:34:34;;;;;;;4.38;2.28;;;12.50;91.00;;;;;;5028453;28;20038;-68
2023/02/17 10:37:00;;;;;;;;;;;12.50;90.90;;;;;;5027483;28;20109;-68
2023/02/17 10:39:52;;;;;;;4.22;1.70;;;12.50;91.00;;;;;;5025906;28;19999;-68
2023/02/17 10:42:37;;;;;;;4.28;2.03;;;12.50;91.00;;;;;;5024419;28;20026;-68
2023/02/17 10:45:20;;;;;;;4.07;2.30;;;12.50;91.00;;;;;;5025273;28;20641;-68
2023/02/17 10:47:46;;;;;;;2.47;1.60;;;12.50;90.90;;;;;;5026427;28;20034;-67
2023/02/17 10:50:21;;;;;;;3.42;2.20;;;12.50;90.90;;;;;;5026530;28;20488;-67
2023/02/17 10:52:51;;;;;;;4.95;2.58;;;12.50;90.90;;;;;;5022492;28;20502;-68
2023/02/17 10:55:24;;;;;;;4.38;2.50;;;12.40;90.90;;;;;;5021723;28;20036;-68
2023/02/17 10:57:59;;;;;;;3.60;1.98;;;12.40;90.90;;;;;;5026181;28;20056;-68
2023/02/17 11:00:25;;;;;;;4.45;2.45;;;12.40;91.00;;;;;;5028958;28;20037;-67
2023/02/17 11:02:52;;;;;;;3.70;2.28;;;12.40;91.00;;;;;;5027281;28;20029;-68
2023/02/17 11:05:27;;;;;;;3.80;2.00;;;12.40;90.90;;;;;;5028966;28;20502;-68
2023/02/17 11:08:05;;;;;;;3.33;1.88;;;12.40;91.00;;;;;;5026909;28;20041;-67
2023/02/17 11:10:38;;;;;;;2.78;1.67;;;12.40;91.00;;;;;;5026197;28;20110;-67
2023/02/17 11:13:32;;;;;;;2.90;1.95;;;12.40;90.90;;;;;;5022230;28;20041;-67
2023/02/17 11:15:57;;;;;;;3.17;1.75;;;12.50;90.90;;;;;;5024719;28;20900;-68
2023/02/17 11:18:30;;;;;;;2.92;1.83;;;12.50;90.90;;;;;;5026857;28;20029;-69
2023/02/17 11:21:06;;;;;;;4.95;2.05;;;12.50;90.80;;;;;;5025655;28;20768;-68
2023/02/17 11:23:32;;;;;;;4.25;1.98;;;12.50;90.80;;;;;;5025863;28;20024;-67
2023/02/17 11:26:01;;;;;;;3.33;2.15;;;12.50;90.80;;;;;;5023490;28;20021;-68
2023/02/17 11:28:28;;;;;;;4.88;2.20;;;12.50;90.80;;;;;;5024871;28;20022;-67
2023/02/17 11:31:01;;;;;;;2.95;1.80;;;12.60;90.80;;;;;;5026470;28;20041;-68
2023/02/17 11:33:38;;;;;;;5.75;2.90;;;12.60;90.80;;;;;;5024806;28;20083;-69
2023/02/17 11:36:05;;;;;;;8.40;2.78;;;12.60;90.70;;;;;;5024870;28;20044;-68
2023/02/17 11:38:37;;;;;;;4.13;2.00;;;12.60;90.70;;;;;;5030837;28;20431;-67
2023/02/17 11:41:05;;;;;;;4.20;2.45;;;12.60;90.70;;;;;;5030898;28;20029;-68
2023/02/17 11:43:31;;;;;;;4.90;2.22;;;12.50;90.80;;;;;;5030292;28;20017;-67
2023/02/17 11:46:09;;;;;;;5.32;2.35;;;12.50;90.80;;;;;;5030895;28;20075;-67
2023/02/17 11:48:57;;;;;;;4.70;2.60;;;12.50;90.80;;;;;;5024989;28;20018;-68
2023/02/17 11:51:51;;;;;;;4.80;2.20;;;12.50;90.80;;;;;;5030304;28;20037;-68
2023/02/17 11:54:16;;;;;;;7.05;3.15;;;12.60;90.80;;;;;;5029776;28;20039;-67
2023/02/17 11:56:51;;;;;;;3.85;2.20;;;12.50;90.70;;;;;;5031361;28;20022;-67
2023/02/17 12:00:02;;;;;;;5.93;2.63;;;12.50;90.70;;;;;;5031016;28;20119;-69
2023/02/17 12:02:57;;;;;;;3.83;2.10;;;12.50;90.80;;;;;;5005401;28;20203;-68
2023/02/17 12:06:01;;;;;;;5.70;2.35;;;12.50;90.80;;;;;;5026845;28;20037;-67
2023/02/17 12:08:52;;;;;;;6.25;2.45;;;12.50;90.80;;;;;;5010449;28;20122;-68
2023/02/17 12:11:23;;;;;;;5.97;2.50;;;12.50;90.90;;;;;;5027064;28;20041;-68
2023/02/17 12:14:11;;;;;;;4.67;2.53;;;12.50;90.90;;;;;;5029562;28;20472;-67
2023/02/17 12:17:01;;;;;;;4.68;2.30;;;12.60;90.90;;;;;;5027814;28;20599;-68
2023/02/17 12:19:45;;;;;;;2.95;1.80;;;12.60;90.80;;;;;;5027659;28;20030;-67
2023/02/17 12:22:44;;;;;;;4.32;2.40;;;12.60;90.80;;;;;;5029972;28;20041;-68
2023/02/17 12:25:25;;;;;;;4.15;2.10;;;12.60;90.70;;;;;;5030209;28;20029;-68
2023/02/17 12:28:09;;;;;;;4.75;2.08;;;12.60;90.70;;;;;;5026758;28;20075;-69
2023/02/17 12:30:50;;;;;;;5.38;2.38;;;12.60;90.70;;;;;;5029107;28;20041;-68
2023/02/17 12:33:49;;;;;;;4.68;2.28;;;12.60;90.70;;;;;;5027227;28;20484;-68
2023/02/17 12:36:18;;;;;;;3.90;2.03;;;12.60;90.80;;;;;;5027021;28;20379;-67
2023/02/17 12:38:46;;;;;;;4.47;2.33;;;12.60;90.80;;;;;;5028796;28;20101;-68
2023/02/17 12:41:17;;;;;;;4.35;2.35;;;12.60;90.80;;;;;;5029277;28;20095;-68
2023/02/17 12:43:54;;;;;;;4.18;2.35;;;12.60;90.80;;;;;;5029212;28;20033;-68
2023/02/17 12:46:28;;;;;;;8.93;2.80;;;12.60;90.80;;;;;;5028945;28;20053;-68
2023/02/17 12:49:08;;;;;;;3.33;1.77;;;12.60;90.80;;;;;;5027943;28;20025;-68
2023/02/17 12:51:40;;;;;;;4.90;2.70;;;12.60;90.80;;;;;;5028428;28;20033;-67
2023/02/17 12:54:41;;;;;;;3.25;2.22;;;12.50;90.70;;;;;;5029221;28;20048;-67
2023/02/17 12:57:12;;;;;;;4.63;2.33;;;12.50;90.70;;;;;;5028810;28;20404;-67
2023/02/17 12:59:43;;;;;;;5.93;2.10;;;12.50;90.70;;;;;;5029212;28;20037;-67
2023/02/17 13:02:15;;;;;;;6.03;2.47;;;12.50;90.80;;;;;;5030865;28;20307;-68
2023/02/17 13:04:43;;;;;;;4.93;2.30;;;12.50;90.80;;;;;;5028572;28;20592;-68
2023/02/17 13:07:33;;;;;;;3.60;1.90;;;12.50;90.80;;;;;;5031566;28;20544;-67